Time;durP1;ratioP1;P1;durP2;ratioP2;P2;SDS_P1;SDS_P2;PMS_P1;PMS_P2;Temp;Humidity;BMP_temperature;BMP_pressure;BME280_temperature;BME280_humidity;BME280_pressure;Samples;Min_cycle;Max_cycle;Signal;HPM_P1;HPM_P2
2024/01/01 00:00:21;;;;;;;44.17;20.67;;;;;;;;;;5075033;28;20042;-65
2024/01/01 00:02:48;;;;;;;39.88;19.52;;;;;;;;;;5107394;28;20043;-65
2024/01/01 00:05:14;;;;;;;40.88;21.25;;;;;;;;;;5098544;28;20122;-65
2024/01/01 00:07:40;;;;;;;36.08;19.17;;;;;;;;;;5094274;28;20088;-65
2024/01/01 00:10:06;;;;;;;40.53;17.42;;;;;;;;;;5093826;28;20043;-65
2024/01/01 00:12:33;;;;;;;30.45;15.20;;;;;;;;;;5092508;28;20052;-65
2024/01/01 00:14:59;;;;;;;33.70;15.18;;;;;;;;;;5095409;28;20044;-65
2024/01/01 00:17:25;;;;;;;27.73;14.95;;;;;;;;;;5091643;28;20047;-65
2024/01/01 00:19:52;;;;;;;24.00;12.43;;;;;;;;;;5093682;28;20450;-65
2024/01/01 00:22:18;;;;;;;27.83;13.48;;;;;;;;;;5091641;28;20498;-65
2024/01/01 00:24:44;;;;;;;31.52;12.68;;;;;;;;;;5103971;28;20115;-65
2024/01/01 00:27:10;;;;;;;23.85;10.07;;;;;;;;;;5098672;27;20091;-65
2024/01/01 00:29:36;;;;;;;18.52;7.82;;;;;;;;;;5095025;27;20054;-66
2024/01/01 00:32:05;;;;;;;18.33;5.13;;;;;;;;;;5094203;28;20464;-65
2024/01/01 00:34:31;;;;;;;11.82;3.65;;;;;;;;;;5091738;28;20046;-65
2024/01/01 00:36:57;;;;;;;10.73;3.53;;;;;;;;;;5092515;28;20048;-65
2024/01/01 00:39:23;;;;;;;6.13;2.70;;;;;;;;;;5093989;28;20040;-65
2024/01/01 00:41:49;;;;;;;10.15;2.67;;;;;;;;;;5095601;28;20188;-65
2024/01/01 00:44:16;;;;;;;5.90;2.10;;;;;;;;;;5100335;28;20058;-65
2024/01/01 00:46:42;;;;;;;9.05;3.10;;;;;;;;;;5102700;27;20135;-65
2024/01/01 00:49:08;;;;;;;9.77;3.50;;;;;;;;;;5099173;28;20055;-65
2024/01/01 00:51:35;;;;;;;13.15;3.15;;;;;;;;;;5107565;27;20084;-66
2024/01/01 00:54:01;;;;;;;8.85;3.13;;;;;;;;;;5101693;27;20058;-65
2024/01/01 00:56:27;;;;;;;13.98;4.88;;;;;;;;;;5109122;27;20474;-65
2024/01/01 00:58:53;;;;;;;16.42;8.35;;;;;;;;;;5110179;27;20043;-65
2024/01/01 01:01:19;;;;;;;18.75;9.68;;;;;;;;;;5100585;28;20046;-65
2024/01/01 01:03:46;;;;;;;23.27;11.02;;;;;;;;;;5099199;27;20160;-66
2024/01/01 01:06:12;;;;;;;24.33;12.93;;;;;;;;;;5099780;27;20143;-65
2024/01/01 01:08:38;;;;;;;33.15;16.27;;;;;;;;;;5101976;27;20035;-65
2024/01/01 01:11:04;;;;;;;36.38;18.15;;;;;;;;;;5101400;27;20157;-66
2024/01/01 01:13:31;;;;;;;34.75;20.42;;;;;;;;;;5109751;27;20047;-66
2024/01/01 01:15:57;;;;;;;41.35;22.17;;;;;;;;;;5112193;27;20491;-65
2024/01/01 01:18:23;;;;;;;40.85;22.73;;;;;;;;;;5096441;28;20110;-66
2024/01/01 01:20:49;;;;;;;37.38;21.45;;;;;;;;;;5108685;27;20402;-65
2024/01/01 01:23:15;;;;;;;42.15;22.10;;;;;;;;;;5082253;27;20089;-66
2024/01/01 01:25:42;;;;;;;44.47;21.33;;;;;;;;;;5107973;27;20405;-65
2024/01/01 01:28:08;;;;;;;58.45;28.55;;;;;;;;;;5099013;28;20475;-65
2024/01/01 01:30:34;;;;;;;65.10;34.28;;;;;;;;;;5100296;27;20420;-66
2024/01/01 01:33:01;;;;;;;64.85;37.75;;;;;;;;;;5105751;27;20052;-65
2024/01/01 01:35:27;;;;;;;62.08;37.53;;;;;;;;;;5102373;27;20046;-65
2024/01/01 01:37:53;;;;;;;69.90;37.72;;;;;;;;;;5097302;28;20124;-65
2024/01/01 01:40:19;;;;;;;64.90;38.60;;;;;;;;;;5095728;27;20150;-66
2024/01/01 01:42:46;;;;;;;66.95;40.65;;;;;;;;;;5101016;27;20399;-65
2024/01/01 01:45:13;;;;;;;70.72;43.58;;;;;;;;;;5110282;27;20054;-66
2024/01/01 01:47:39;;;;;;;73.60;44.78;;;;;;;;;;5109321;27;20048;-65
2024/01/01 01:50:06;;;;;;;78.80;45.95;;;;;;;;;;5094167;27;20513;-66
2024/01/01 01:52:34;;;;;;;79.90;43.42;;;;;;;;;;5093656;28;20044;-66
2024/01/01 01:55:00;;;;;;;76.45;44.67;;;;;;;;;;5093557;28;20050;-65
2024/01/01 01:57:27;;;;;;;80.95;48.38;;;;;;;;;;5098714;28;20399;-65
2024/01/01 01:59:54;;;;;;;87.65;47.35;;;;;;;;;;5077990;27;20060;-66
2024/01/01 02:02:22;;;;;;;82.72;46.33;;;;;;;;;;5108853;27;20074;-65
2024/01/01 02:04:50;;;;;;;77.60;47.83;;;;;;;;;;5094566;27;20062;-66
2024/01/01 02:07:16;;;;;;;83.13;45.05;;;;;;;;;;5101156;27;20046;-66
2024/01/01 02:09:42;;;;;;;87.75;49.17;;;;;;;;;;5096609;27;20556;-65
2024/01/01 02:12:08;;;;;;;94.20;49.88;;;;;;;;;;5092778;28;20044;-66
2024/01/01 02:14:35;;;;;;;86.80;48.63;;;;;;;;;;5090306;28;20044;-66
2024/01/01 02:17:01;;;;;;;84.40;47.47;;;;;;;;;;5088323;28;20408;-66
2024/01/01 02:19:28;;;;;;;81.45;45.75;;;;;;;;;;5093314;28;20055;-65
2024/01/01 02:21:56;;;;;;;80.15;42.92;;;;;;;;;;5093862;28;20110;-65
2024/01/01 02:24:22;;;;;;;84.30;44.20;;;;;;;;;;5088026;28;20044;-65
2024/01/01 02:26:49;;;;;;;71.35;40.08;;;;;;;;;;5094296;28;20062;-65
2024/01/01 02:29:15;;;;;;;74.13;40.13;;;;;;;;;;5107814;27;20055;-66
2024/01/01 02:31:41;;;;;;;72.32;41.28;;;;;;;;;;5103477;27;20047;-65
2024/01/01 02:34:08;;;;;;;71.30;38.15;;;;;;;;;;5103653;27;20052;-65
2024/01/01 02:36:36;;;;;;;71.82;36.72;;;;;;;;;;5118446;27;20039;-65
2024/01/01 02:39:03;;;;;;;75.07;39.45;;;;;;;;;;5119095;27;20043;-66
2024/01/01 02:41:31;;;;;;;69.38;35.85;;;;;;;;;;5099137;27;20043;-65
2024/01/01 02:43:57;;;;;;;69.03;35.17;;;;;;;;;;5099373;27;20143;-65
2024/01/01 02:46:23;;;;;;;64.97;30.85;;;;;;;;;;5098223;27;20111;-65
2024/01/01 02:48:49;;;;;;;52.10;29.38;;;;;;;;;;5078190;27;20651;-65
2024/01/01 02:51:15;;;;;;;60.17;30.48;;;;;;;;;;5099621;27;20529;-66
2024/01/01 02:53:41;;;;;;;55.70;28.98;;;;;;;;;;5096727;27;20047;-65
2024/01/01 02:56:15;;;;;;;65.43;31.00;;;;;;;;;;5114254;27;20054;-65
2024/01/01 02:58:41;;;;;;;57.90;30.10;;;;;;;;;;5119090;27;20050;-66
2024/01/01 03:01:08;;;;;;;63.03;29.55;;;;;;;;;;5119490;27;20039;-65
2024/01/01 03:03:34;;;;;;;61.58;28.25;;;;;;;;;;5100772;27;20078;-65
2024/01/01 03:06:00;;;;;;;65.95;31.27;;;;;;;;;;5120958;27;20173;-65
2024/01/01 03:08:26;;;;;;;71.28;30.13;;;;;;;;;;5118302;27;20067;-66
2024/01/01 03:10:52;;;;;;;54.20;27.58;;;;;;;;;;5098360;27;20055;-66
2024/01/01 03:13:18;;;;;;;61.75;27.70;;;;;;;;;;5097589;27;20789;-66
2024/01/01 03:15:45;;;;;;;59.13;27.35;;;;;;;;;;5098730;27;20051;-65
2024/01/01 03:18:12;;;;;;;56.83;26.45;;;;;;;;;;5101593;27;20394;-65
2024/01/01 03:20:38;;;;;;;52.00;24.23;;;;;;;;;;5102698;27;20043;-65
2024/01/01 03:23:05;;;;;;;55.20;24.90;;;;;;;;;;5099158;27;20130;-65
2024/01/01 03:25:31;;;;;;;58.47;24.92;;;;;;;;;;5100145;27;20035;-65
2024/01/01 03:27:57;;;;;;;53.20;22.90;;;;;;;;;;5118714;27;20043;-65
2024/01/01 03:30:24;;;;;;;51.42;21.27;;;;;;;;;;5089167;28;20139;-65
2024/01/01 03:32:50;;;;;;;49.13;20.23;;;;;;;;;;5088244;28;20046;-65
2024/01/01 03:35:17;;;;;;;48.42;21.00;;;;;;;;;;5095500;27;20035;-65
2024/01/01 03:37:43;;;;;;;55.15;20.38;;;;;;;;;;5088019;28;20151;-66
2024/01/01 03:40:09;;;;;;;50.85;19.55;;;;;;;;;;5089403;28;20418;-65
2024/01/01 03:42:36;;;;;;;49.78;18.60;;;;;;;;;;5097590;27;20108;-65
2024/01/01 03:45:02;;;;;;;46.70;19.45;;;;;;;;;;5078302;28;20484;-65
2024/01/01 03:47:28;;;;;;;47.22;17.88;;;;;;;;;;5095298;27;20044;-65
2024/01/01 03:49:55;;;;;;;39.83;17.00;;;;;;;;;;5089760;28;20043;-65
2024/01/01 03:52:23;;;;;;;46.50;17.85;;;;;;;;;;5096670;27;20044;-65
2024/01/01 03:54:49;;;;;;;51.92;17.77;;;;;;;;;;5089261;28;20175;-66
2024/01/01 03:57:15;;;;;;;35.97;14.80;;;;;;;;;;5089608;27;20031;-65
2024/01/01 03:59:41;;;;;;;34.17;14.23;;;;;;;;;;5091898;27;20050;-65
2024/01/01 04:02:10;;;;;;;37.35;13.18;;;;;;;;;;5099485;28;20047;-65
2024/01/01 04:04:37;;;;;;;36.05;13.30;;;;;;;;;;5096408;28;20047;-65
2024/01/01 04:07:03;;;;;;;41.20;12.80;;;;;;;;;;5087193;27;20062;-65
2024/01/01 04:09:29;;;;;;;29.08;11.77;;;;;;;;;;5087643;28;20044;-66
2024/01/01 04:11:55;;;;;;;34.95;12.52;;;;;;;;;;5087511;28;20048;-65
2024/01/01 04:14:21;;;;;;;40.58;12.40;;;;;;;;;;5095171;27;20913;-65
2024/01/01 04:16:48;;;;;;;29.63;11.45;;;;;;;;;;5087360;28;20058;-65
2024/01/01 04:19:14;;;;;;;26.50;10.20;;;;;;;;;;5094890;28;20044;-65
2024/01/01 04:21:40;;;;;;;31.67;10.40;;;;;;;;;;5094540;28;20059;-65
2024/01/01 04:24:08;;;;;;;26.42;8.85;;;;;;;;;;5098663;27;20078;-65
2024/01/01 04:26:34;;;;;;;32.13;12.00;;;;;;;;;;5095537;28;20051;-65
2024/01/01 04:29:01;;;;;;;29.05;11.75;;;;;;;;;;5094252;27;20060;-66
2024/01/01 04:31:27;;;;;;;29.25;9.50;;;;;;;;;;5114988;27;21696;-65
2024/01/01 04:33:54;;;;;;;31.05;10.10;;;;;;;;;;5098622;27;20434;-65
2024/01/01 04:36:21;;;;;;;34.85;10.40;;;;;;;;;;5096839;28;20039;-65
2024/01/01 04:38:47;;;;;;;32.53;10.63;;;;;;;;;;5097592;28;20055;-66
2024/01/01 04:41:13;;;;;;;26.73;9.77;;;;;;;;;;5106475;27;20031;-65
2024/01/01 04:43:40;;;;;;;23.92;7.95;;;;;;;;;;5128365;27;20039;-65
2024/01/01 04:46:06;;;;;;;25.15;7.72;;;;;;;;;;5109127;28;20035;-65
2024/01/01 04:48:34;;;;;;;27.20;8.15;;;;;;;;;;5106816;27;20051;-65
2024/01/01 04:51:00;;;;;;;17.92;6.18;;;;;;;;;;5107449;28;20071;-65
2024/01/01 04:53:26;;;;;;;24.42;6.60;;;;;;;;;;5100846;27;20039;-66
2024/01/01 04:55:52;;;;;;;14.70;5.05;;;;;;;;;;5100786;27;20040;-66
2024/01/01 04:58:19;;;;;;;13.57;3.47;;;;;;;;;;5098145;27;20039;-65
2024/01/01 05:00:46;;;;;;;13.27;3.42;;;;;;;;;;5120945;27;20043;-65
2024/01/01 05:03:12;;;;;;;12.52;3.80;;;;;;;;;;5100140;27;20501;-65
2024/01/01 05:05:38;;;;;;;6.03;2.08;;;;;;;;;;5118467;27;20525;-65
2024/01/01 05:08:04;;;;;;;8.90;2.00;;;;;;;;;;5104704;27;20130;-65
2024/01/01 05:10:31;;;;;;;12.75;2.95;;;;;;;;;;5104304;28;20044;-65
2024/01/01 05:12:57;;;;;;;7.38;2.40;;;;;;;;;;5106889;28;20035;-65
2024/01/01 05:15:23;;;;;;;9.23;2.72;;;;;;;;;;5099489;28;20091;-65
2024/01/01 05:17:49;;;;;;;9.95;2.80;;;;;;;;;;5123746;27;20084;-65
2024/01/01 05:20:15;;;;;;;10.05;3.00;;;;;;;;;;5123021;27;20130;-65
2024/01/01 05:22:42;;;;;;;9.55;2.78;;;;;;;;;;5099816;28;20035;-65
2024/01/01 05:25:08;;;;;;;7.43;2.53;;;;;;;;;;5101529;27;20043;-65
2024/01/01 05:27:34;;;;;;;12.90;2.38;;;;;;;;;;5119619;27;20474;-65
2024/01/01 05:30:00;;;;;;;9.82;2.60;;;;;;;;;;5099237;27;20081;-65
2024/01/01 05:32:26;;;;;;;10.35;2.40;;;;;;;;;;5108291;27;20047;-65
2024/01/01 05:34:52;;;;;;;12.75;2.67;;;;;;;;;;5107217;27;20195;-65
2024/01/01 05:37:19;;;;;;;12.45;2.33;;;;;;;;;;5110438;27;20034;-65
2024/01/01 05:39:45;;;;;;;12.38;2.15;;;;;;;;;;5122510;27;20455;-65
2024/01/01 05:42:11;;;;;;;9.35;2.47;;;;;;;;;;5099839;27;20642;-65
2024/01/01 05:44:37;;;;;;;13.10;3.30;;;;;;;;;;5118911;27;20331;-65
2024/01/01 05:47:04;;;;;;;15.00;3.90;;;;;;;;;;5101882;27;20486;-65
2024/01/01 05:49:30;;;;;;;25.25;5.13;;;;;;;;;;5121562;27;20057;-66
2024/01/01 05:51:56;;;;;;;22.70;5.55;;;;;;;;;;5118989;27;20131;-65
2024/01/01 05:54:22;;;;;;;24.55;5.75;;;;;;;;;;5101299;27;20069;-65
2024/01/01 05:56:48;;;;;;;20.02;5.18;;;;;;;;;;5120130;27;20038;-65
2024/01/01 05:59:14;;;;;;;20.42;5.30;;;;;;;;;;5118242;27;20586;-65
2024/01/01 06:01:41;;;;;;;25.90;4.43;;;;;;;;;;5099095;27;20039;-65
2024/01/01 06:04:07;;;;;;;19.40;4.38;;;;;;;;;;5121708;27;20735;-66
2024/01/01 06:06:35;;;;;;;21.88;4.22;;;;;;;;;;5086579;27;20477;-64
2024/01/01 06:09:01;;;;;;;15.00;3.40;;;;;;;;;;5123406;27;20502;-64
2024/01/01 06:11:27;;;;;;;20.80;3.65;;;;;;;;;;5105597;27;20043;-64
2024/01/01 06:13:54;;;;;;;20.60;3.30;;;;;;;;;;5105243;27;20628;-64
2024/01/01 06:16:20;;;;;;;28.15;4.28;;;;;;;;;;5105930;27;20039;-64
2024/01/01 06:18:46;;;;;;;20.90;4.07;;;;;;;;;;5103200;27;20043;-64
2024/01/01 06:21:12;;;;;;;22.13;4.70;;;;;;;;;;5101748;27;20359;-64
2024/01/01 06:23:40;;;;;;;23.30;4.20;;;;;;;;;;5117344;27;20135;-64
2024/01/01 06:26:08;;;;;;;25.67;4.93;;;;;;;;;;5119253;27;20047;-64
2024/01/01 06:28:34;;;;;;;30.48;7.15;;;;;;;;;;5103675;27;20124;-64
2024/01/01 06:31:00;;;;;;;32.88;5.50;;;;;;;;;;5107388;27;20126;-64
2024/01/01 06:33:29;;;;;;;28.75;5.60;;;;;;;;;;5103975;27;20138;-64
2024/01/01 06:35:55;;;;;;;20.55;5.32;;;;;;;;;;5103248;27;20058;-64
2024/01/01 06:38:22;;;;;;;23.80;4.57;;;;;;;;;;5105758;27;20143;-64
2024/01/01 06:40:48;;;;;;;12.82;2.25;;;;;;;;;;5096303;27;20410;-64
2024/01/01 06:43:14;;;;;;;6.65;1.50;;;;;;;;;;5098348;27;20057;-64
2024/01/01 06:45:40;;;;;;;7.25;1.40;;;;;;;;;;5105768;27;20085;-64
2024/01/01 06:48:11;;;;;;;8.60;1.20;;;;;;;;;;5105034;27;20042;-64
2024/01/01 06:50:37;;;;;;;10.88;1.48;;;;;;;;;;5107168;27;20044;-64
2024/01/01 06:53:03;;;;;;;6.88;1.10;;;;;;;;;;5124741;27;20114;-64
2024/01/01 06:55:30;;;;;;;7.88;0.95;;;;;;;;;;5101477;27;20039;-64
2024/01/01 06:57:59;;;;;;;5.30;0.80;;;;;;;;;;5121526;27;20141;-64
2024/01/01 07:00:25;;;;;;;5.82;1.13;;;;;;;;;;5103153;27;20047;-64
2024/01/01 07:02:52;;;;;;;6.30;0.85;;;;;;;;;;5101039;27;20089;-64
2024/01/01 07:05:19;;;;;;;8.45;0.70;;;;;;;;;;5116377;27;20043;-64
2024/01/01 07:07:45;;;;;;;4.72;1.00;;;;;;;;;;5101800;27;20082;-64
2024/01/01 07:10:11;;;;;;;4.28;0.70;;;;;;;;;;5120874;27;20047;-64
2024/01/01 07:12:38;;;;;;;3.83;0.70;;;;;;;;;;5124350;27;20039;-64
2024/01/01 07:15:04;;;;;;;5.32;1.05;;;;;;;;;;5104459;27;20040;-64
2024/01/01 07:17:31;;;;;;;6.28;0.70;;;;;;;;;;5100905;27;20035;-64
2024/01/01 07:19:58;;;;;;;10.55;1.73;;;;;;;;;;5104297;27;20492;-65
2024/01/01 07:22:24;;;;;;;8.90;1.00;;;;;;;;;;5126065;27;20072;-64
2024/01/01 07:24:50;;;;;;;5.15;1.17;;;;;;;;;;5124567;27;20399;-64
2024/01/01 07:27:16;;;;;;;10.98;1.30;;;;;;;;;;5105718;27;20042;-64
2024/01/01 07:29:42;;;;;;;5.15;1.02;;;;;;;;;;5087253;27;20054;-64
2024/01/01 07:32:09;;;;;;;12.50;2.20;;;;;;;;;;5118056;27;20122;-64
2024/01/01 07:34:35;;;;;;;8.40;1.40;;;;;;;;;;5099913;27;20038;-65
2024/01/01 07:37:04;;;;;;;8.60;1.27;;;;;;;;;;5098966;27;20043;-64
2024/01/01 07:39:30;;;;;;;17.83;4.38;;;;;;;;;;5121411;27;20095;-64
2024/01/01 07:41:56;;;;;;;10.18;1.60;;;;;;;;;;5103117;27;20036;-65
2024/01/01 07:44:22;;;;;;;9.82;1.55;;;;;;;;;;5125062;27;20075;-64
2024/01/01 07:46:49;;;;;;;18.20;2.75;;;;;;;;;;5098552;27;20035;-64
2024/01/01 07:49:16;;;;;;;12.80;2.85;;;;;;;;;;5105981;27;20044;-64
2024/01/01 07:51:43;;;;;;;17.60;2.90;;;;;;;;;;5119874;27;20401;-64
2024/01/01 07:54:10;;;;;;;18.55;4.13;;;;;;;;;;5124795;27;20421;-64
2024/01/01 07:56:41;;;;;;;15.77;3.00;;;;;;;;;;5123999;27;20524;-64
2024/01/01 07:59:07;;;;;;;19.63;2.83;;;;;;;;;;5101416;27;20141;-64
2024/01/01 08:01:33;;;;;;;22.13;3.33;;;;;;;;;;5104203;27;20052;-64
2024/01/01 08:03:59;;;;;;;21.02;3.97;;;;;;;;;;5116620;27;20050;-64
2024/01/01 08:06:26;;;;;;;23.80;3.97;;;;;;;;;;5121572;27;20114;-64
2024/01/01 08:08:52;;;;;;;20.88;3.05;;;;;;;;;;5120780;27;20445;-64
2024/01/01 08:11:19;;;;;;;24.38;3.33;;;;;;;;;;5100025;27;20051;-65
2024/01/01 08:13:45;;;;;;;16.15;3.13;;;;;;;;;;5112914;27;20482;-64
2024/01/01 08:16:12;;;;;;;23.20;3.03;;;;;;;;;;5104568;27;20055;-64
2024/01/01 08:18:39;;;;;;;15.85;3.95;;;;;;;;;;5104006;27;20593;-64
2024/01/01 08:21:05;;;;;;;17.27;3.60;;;;;;;;;;5100976;27;20089;-64
2024/01/01 08:23:31;;;;;;;26.52;3.40;;;;;;;;;;5101348;27;20055;-64
2024/01/01 08:25:58;;;;;;;22.67;4.32;;;;;;;;;;5112967;27;20088;-64
2024/01/01 08:28:24;;;;;;;19.40;3.58;;;;;;;;;;5120250;27;20067;-64
2024/01/01 08:30:50;;;;;;;23.13;4.32;;;;;;;;;;5101267;27;20504;-64
2024/01/01 08:33:17;;;;;;;21.98;3.35;;;;;;;;;;5099050;27;20043;-64
2024/01/01 08:35:43;;;;;;;16.05;4.07;;;;;;;;;;5103224;27;20047;-64
2024/01/01 08:38:09;;;;;;;10.80;2.58;;;;;;;;;;5118578;27;20433;-65
2024/01/01 08:40:35;;;;;;;14.82;2.50;;;;;;;;;;5118446;27;20467;-65
2024/01/01 08:43:01;;;;;;;12.52;2.42;;;;;;;;;;5120381;27;20039;-75
2024/01/01 08:45:28;;;;;;;7.88;1.80;;;;;;;;;;5083509;28;20129;-64
2024/01/01 08:47:54;;;;;;;12.77;2.55;;;;;;;;;;5118832;27;20100;-64
2024/01/01 08:50:20;;;;;;;13.15;2.38;;;;;;;;;;5094047;28;20067;-64
2024/01/01 08:52:47;;;;;;;14.48;2.20;;;;;;;;;;5098510;28;20043;-64
2024/01/01 08:55:13;;;;;;;19.15;2.45;;;;;;;;;;5093323;27;20047;-64
2024/01/01 08:57:39;;;;;;;15.98;2.70;;;;;;;;;;5086409;28;20149;-64
2024/01/01 09:00:06;;;;;;;18.73;3.30;;;;;;;;;;5124465;27;20039;-64
2024/01/01 09:02:33;;;;;;;15.27;2.40;;;;;;;;;;5099813;28;20077;-64
2024/01/01 09:04:59;;;;;;;18.95;3.10;;;;;;;;;;5089319;27;20055;-64
2024/01/01 09:07:25;;;;;;;17.45;3.30;;;;;;;;;;5111542;27;20031;-64
2024/01/01 09:09:52;;;;;;;19.10;3.55;;;;;;;;;;5104216;27;20137;-64
2024/01/01 09:12:19;;;;;;;16.67;3.10;;;;;;;;;;5126428;27;20517;-64
2024/01/01 09:14:45;;;;;;;21.10;3.50;;;;;;;;;;5109134;27;20126;-64
2024/01/01 09:17:12;;;;;;;22.55;3.28;;;;;;;;;;5112438;27;20340;-64
2024/01/01 09:19:38;;;;;;;18.67;3.35;;;;;;;;;;5125219;27;20054;-64
2024/01/01 09:22:05;;;;;;;15.68;3.25;;;;;;;;;;5127224;27;20031;-64
2024/01/01 09:24:31;;;;;;;15.10;2.97;;;;;;;;;;5127980;27;20123;-64
2024/01/01 09:26:58;;;;;;;19.38;3.22;;;;;;;;;;5122966;27;20070;-64
2024/01/01 09:29:25;;;;;;;20.17;3.03;;;;;;;;;;5127162;27;20058;-64
2024/01/01 09:31:52;;;;;;;16.27;2.60;;;;;;;;;;5099593;27;20162;-64
2024/01/01 09:34:18;;;;;;;21.63;2.70;;;;;;;;;;5125566;27;20103;-64
2024/01/01 09:36:45;;;;;;;21.88;4.65;;;;;;;;;;5102352;27;20047;-64
2024/01/01 09:39:12;;;;;;;12.20;2.05;;;;;;;;;;5104397;27;20498;-64
2024/01/01 09:41:38;;;;;;;15.77;2.17;;;;;;;;;;5108055;27;20078;-64
2024/01/01 09:44:04;;;;;;;14.77;3.17;;;;;;;;;;5126852;27;20042;-65
2024/01/01 09:46:33;;;;;;;17.98;2.90;;;;;;;;;;5120981;27;20130;-64
2024/01/01 09:49:00;;;;;;;24.00;3.72;;;;;;;;;;5100354;27;20055;-64
2024/01/01 09:51:27;;;;;;;28.27;3.95;;;;;;;;;;5121895;27;20031;-65
2024/01/01 09:53:53;;;;;;;27.98;4.20;;;;;;;;;;5106335;27;20410;-65
2024/01/01 09:56:21;;;;;;;32.67;4.75;;;;;;;;;;5102446;27;20080;-64
2024/01/01 09:58:47;;;;;;;32.17;5.70;;;;;;;;;;5101929;27;20048;-64
2024/01/01 10:01:16;;;;;;;28.52;4.57;;;;;;;;;;5124911;27;20055;-65
2024/01/01 10:03:43;;;;;;;29.48;3.80;;;;;;;;;;5105807;27;20067;-65
2024/01/01 10:06:10;;;;;;;38.30;5.00;;;;;;;;;;5104900;27;20050;-64
2024/01/01 10:08:37;;;;;;;23.80;3.50;;;;;;;;;;5124528;27;20043;-64
2024/01/01 10:11:18;;;;;;;36.05;4.18;;;;;;;;;;5129202;27;20031;-64
2024/01/01 10:13:45;;;;;;;35.15;4.43;;;;;;;;;;5107160;27;20072;-64
2024/01/01 10:16:22;;;;;;;30.80;4.55;;;;;;;;;;5126425;27;20039;-64
2024/01/01 10:18:56;;;;;;;25.10;4.55;;;;;;;;;;5122662;27;20046;-64
2024/01/01 10:21:26;;;;;;;37.58;4.28;;;;;;;;;;5108103;27;20043;-65
2024/01/01 10:23:52;;;;;;;34.88;5.78;;;;;;;;;;5126959;27;20374;-64
2024/01/01 10:26:19;;;;;;;31.98;4.40;;;;;;;;;;5103783;27;20191;-64
2024/01/01 10:28:45;;;;;;;27.05;3.50;;;;;;;;;;5105744;27;20059;-65
2024/01/01 10:31:12;;;;;;;26.40;5.70;;;;;;;;;;5104062;27;20150;-65
2024/01/01 10:33:40;;;;;;;22.98;3.22;;;;;;;;;;5124294;27;20490;-64
2024/01/01 10:36:07;;;;;;;36.08;5.68;;;;;;;;;;5105584;27;20112;-64
2024/01/01 10:38:34;;;;;;;33.95;4.07;;;;;;;;;;5100573;27;20046;-64
2024/01/01 10:41:02;;;;;;;16.30;2.90;;;;;;;;;;5108683;27;20039;-64
2024/01/01 10:43:28;;;;;;;23.20;3.10;;;;;;;;;;5123887;27;20043;-65
2024/01/01 10:46:02;;;;;;;24.33;3.90;;;;;;;;;;5101670;27;20042;-64
2024/01/01 10:48:28;;;;;;;29.92;3.85;;;;;;;;;;5106127;27;20494;-64
2024/01/01 10:51:00;;;;;;;27.40;4.45;;;;;;;;;;5084991;27;20031;-64
2024/01/01 10:53:31;;;;;;;22.20;3.63;;;;;;;;;;5104195;27;20063;-63
2024/01/01 10:56:05;;;;;;;22.13;3.92;;;;;;;;;;5106303;27;20048;-63
2024/01/01 10:58:31;;;;;;;;;;;;;;;;;;5122288;27;20046;-64
2024/01/01 11:01:02;;;;;;;22.85;3.40;;;;;;;;;;5099535;27;20018;-66
2024/01/01 11:03:30;;;;;;;21.15;4.30;;;;;;;;;;5102336;27;20044;-64
2024/01/01 11:05:56;;;;;;;16.63;3.00;;;;;;;;;;5123194;27;20035;-66
2024/01/01 11:08:27;;;;;;;18.85;2.85;;;;;;;;;;5105477;27;20050;-64
2024/01/01 11:10:53;;;;;;;25.83;4.38;;;;;;;;;;5104304;27;20103;-64
2024/01/01 11:13:26;;;;;;;21.88;3.38;;;;;;;;;;5100500;27;20517;-64
2024/01/01 11:16:00;;;;;;;28.48;3.67;;;;;;;;;;5102215;27;20044;-65
2024/01/01 11:18:32;;;;;;;25.00;3.35;;;;;;;;;;5099762;27;20047;-64
2024/01/01 11:21:01;;;;;;;29.43;4.17;;;;;;;;;;5098039;27;20047;-64
2024/01/01 11:23:39;;;;;;;23.08;2.78;;;;;;;;;;5117868;27;20047;-64
2024/01/01 11:26:24;;;;;;;24.13;3.63;;;;;;;;;;5099386;27;20051;-64
2024/01/01 11:28:51;;;;;;;22.13;3.20;;;;;;;;;;5122724;27;20142;-65
2024/01/01 11:31:17;;;;;;;12.95;3.33;;;;;;;;;;5086480;27;20039;-64
2024/01/01 11:33:43;;;;;;;17.20;2.80;;;;;;;;;;5102155;27;20437;-64
2024/01/01 11:36:10;;;;;;;25.25;3.20;;;;;;;;;;5098811;27;20035;-64
2024/01/01 11:38:36;;;;;;;27.52;4.70;;;;;;;;;;5101918;27;20501;-64
2024/01/01 11:41:03;;;;;;;26.38;3.58;;;;;;;;;;5102308;27;20114;-64
2024/01/01 11:43:29;;;;;;;23.70;4.55;;;;;;;;;;5101455;27;20050;-64
2024/01/01 11:45:55;;;;;;;20.13;3.67;;;;;;;;;;5122090;27;20129;-64
2024/01/01 11:48:22;;;;;;;21.92;4.15;;;;;;;;;;5122662;27;20058;-64
2024/01/01 11:50:49;;;;;;;21.77;3.50;;;;;;;;;;5105795;27;20047;-64
2024/01/01 11:53:16;;;;;;;22.27;4.88;;;;;;;;;;5100018;27;20486;-64
2024/01/01 11:55:42;;;;;;;21.45;3.45;;;;;;;;;;5123489;27;20126;-64
2024/01/01 11:58:09;;;;;;;16.38;3.03;;;;;;;;;;5102426;27;20035;-63
2024/01/01 12:00:36;;;;;;;24.83;4.15;;;;;;;;;;5124740;27;20051;-64
2024/01/01 12:03:04;;;;;;;19.88;2.80;;;;;;;;;;5102773;27;20050;-64
2024/01/01 12:05:30;;;;;;;28.45;3.55;;;;;;;;;;5120698;27;20486;-64
2024/01/01 12:07:56;;;;;;;14.18;3.60;;;;;;;;;;5103298;27;20108;-64
2024/01/01 12:10:25;;;;;;;18.42;2.65;;;;;;;;;;5104237;27;20126;-64
2024/01/01 12:12:59;;;;;;;20.60;4.45;;;;;;;;;;5104396;28;20075;-65
2024/01/01 12:15:30;;;;;;;20.80;3.33;;;;;;;;;;5103895;27;20122;-64
2024/01/01 12:17:56;;;;;;;21.25;2.90;;;;;;;;;;5103575;27;20054;-64
2024/01/01 12:20:23;;;;;;;16.80;3.47;;;;;;;;;;5100015;27;20491;-64
2024/01/01 12:22:50;;;;;;;15.27;3.20;;;;;;;;;;5099740;27;20051;-64
2024/01/01 12:25:17;;;;;;;18.77;3.03;;;;;;;;;;5103240;27;20039;-64
2024/01/01 12:27:43;;;;;;;18.92;3.45;;;;;;;;;;5119124;27;20157;-64
2024/01/01 12:30:24;;;;;;;27.42;5.22;;;;;;;;;;5094083;27;20051;-64
2024/01/01 12:32:50;;;;;;;22.23;3.35;;;;;;;;;;5117036;27;20371;-64
2024/01/01 12:35:16;;;;;;;16.00;2.40;;;;;;;;;;5101400;27;20510;-64
2024/01/01 12:37:46;;;;;;;17.50;2.90;;;;;;;;;;5101482;27;20465;-63
2024/01/01 12:40:12;;;;;;;14.35;2.70;;;;;;;;;;5118547;27;20129;-70
2024/01/01 12:42:38;;;;;;;18.30;2.72;;;;;;;;;;5084481;28;20066;-66
2024/01/01 12:45:05;;;;;;;21.55;2.42;;;;;;;;;;5123253;27;20394;-66
2024/01/01 12:47:31;;;;;;;19.67;3.28;;;;;;;;;;5104878;28;20047;-66
2024/01/01 12:49:58;;;;;;;16.80;2.88;;;;;;;;;;5100442;28;20047;-67
2024/01/01 12:52:24;;;;;;;20.33;2.90;;;;;;;;;;5118254;27;20052;-66
2024/01/01 12:54:50;;;;;;;22.35;4.63;;;;;;;;;;5116705;27;20070;-66
2024/01/01 12:57:17;;;;;;;17.80;2.90;;;;;;;;;;5101748;28;20092;-66
2024/01/01 12:59:43;;;;;;;21.77;3.22;;;;;;;;;;5122453;28;20107;-66
2024/01/01 13:02:10;;;;;;;19.13;3.25;;;;;;;;;;5103283;27;20091;-66
2024/01/01 13:04:36;;;;;;;18.13;3.35;;;;;;;;;;5098809;28;20186;-65
2024/01/01 13:07:03;;;;;;;21.02;2.85;;;;;;;;;;5116387;27;20442;-65
2024/01/01 13:09:29;;;;;;;17.83;3.33;;;;;;;;;;5113583;27;20616;-65
2024/01/01 13:11:55;;;;;;;19.02;2.58;;;;;;;;;;5096188;28;20047;-66
2024/01/01 13:14:21;;;;;;;24.25;3.78;;;;;;;;;;5100726;28;20063;-64
2024/01/01 13:16:48;;;;;;;23.52;4.22;;;;;;;;;;5119037;27;20039;-63
2024/01/01 13:19:14;;;;;;;18.67;3.28;;;;;;;;;;5116330;27;20406;-63
2024/01/01 13:21:41;;;;;;;20.17;3.50;;;;;;;;;;5100186;28;20490;-64
2024/01/01 13:24:07;;;;;;;20.33;2.90;;;;;;;;;;5098105;27;20054;-63
2024/01/01 13:26:35;;;;;;;18.80;4.05;;;;;;;;;;5120875;27;20454;-63
2024/01/01 13:29:02;;;;;;;18.52;3.20;;;;;;;;;;5100934;28;20402;-65
2024/01/01 13:31:28;;;;;;;32.63;5.30;;;;;;;;;;5119223;27;20416;-64
2024/01/01 13:33:54;;;;;;;21.27;4.30;;;;;;;;;;5122683;27;20047;-63
2024/01/01 13:36:21;;;;;;;11.55;2.38;;;;;;;;;;5122623;27;20047;-63
2024/01/01 13:38:47;;;;;;;14.15;2.15;;;;;;;;;;5103147;27;20194;-63
2024/01/01 13:41:13;;;;;;;15.13;2.67;;;;;;;;;;5121174;27;20047;-64
2024/01/01 13:43:39;;;;;;;10.18;1.80;;;;;;;;;;5119360;27;20039;-63
2024/01/01 13:46:05;;;;;;;17.20;3.97;;;;;;;;;;5099861;28;20051;-63
2024/01/01 13:48:32;;;;;;;16.35;3.00;;;;;;;;;;5120005;27;20410;-64
2024/01/01 13:50:58;;;;;;;24.73;3.28;;;;;;;;;;5104471;27;20047;-63
2024/01/01 13:53:25;;;;;;;16.25;3.65;;;;;;;;;;5104450;27;20058;-64
2024/01/01 13:55:54;;;;;;;24.00;4.90;;;;;;;;;;5107056;27;20414;-63
2024/01/01 13:58:20;;;;;;;21.35;2.92;;;;;;;;;;5121370;27;20051;-63
2024/01/01 14:00:47;;;;;;;22.90;3.05;;;;;;;;;;5122464;27;20077;-63
2024/01/01 14:03:15;;;;;;;21.05;3.65;;;;;;;;;;5101551;27;20047;-63
2024/01/01 14:05:42;;;;;;;20.80;3.13;;;;;;;;;;5100480;27;20126;-63
2024/01/01 14:08:08;;;;;;;22.52;3.83;;;;;;;;;;5120667;27;20043;-63
2024/01/01 14:10:34;;;;;;;16.27;3.25;;;;;;;;;;5122581;27;20044;-63
2024/01/01 14:13:01;;;;;;;14.80;3.38;;;;;;;;;;5122338;27;20042;-63
2024/01/01 14:15:28;;;;;;;19.15;3.55;;;;;;;;;;5103080;27;20039;-64
2024/01/01 14:17:55;;;;;;;17.08;3.25;;;;;;;;;;5126286;27;20402;-63
2024/01/01 14:20:22;;;;;;;19.00;3.00;;;;;;;;;;5125473;27;20473;-64
2024/01/01 14:22:48;;;;;;;21.35;2.80;;;;;;;;;;5105687;27;20071;-63
2024/01/01 14:25:14;;;;;;;22.45;3.97;;;;;;;;;;5100392;27;21895;-63